sensor_id;sensor_type;location;lat;lon;timestamp;pressure;altitude;pressure_sealevel;temperature;humidity
5126;BME280;63008;53.112;8.896;2023-05-10T00:00:48;100692.00;;;16.18;51.52
5126;BME280;63008;53.112;8.896;2023-05-10T00:02:49;100693.66;;;16.23;54.56
5126;BME280;63008;53.112;8.896;2023-05-10T00:04:50;100695.56;;;16.19;52.36
5126;BME280;63008;53.112;8.896;2023-05-10T00:06:51;100690.66;;;16.09;52.61
5126;BME280;63008;53.112;8.896;2023-05-10T00:08:53;100695.47;;;16.12;52.73
5126;BME280;63008;53.112;8.896;2023-05-10T00:10:54;100686.94;;;15.98;52.68
5126;BME280;63008;53.112;8.896;2023-05-10T00:12:55;100684.91;;;15.95;53.80
5126;BME280;63008;53.112;8.896;2023-05-10T00:14:57;100687.41;;;16.03;53.99
5126;BME280;63008;53.112;8.896;2023-05-10T00:16:58;100686.38;;;16.11;52.86
5126;BME280;63008;53.112;8.896;2023-05-10T00:18:59;100682.78;;;16.11;53.24
5126;BME280;63008;53.112;8.896;2023-05-10T00:21:00;100681.97;;;16.10;52.60
5126;BME280;63008;53.112;8.896;2023-05-10T00:23:01;100685.88;;;16.06;51.91
5126;BME280;63008;53.112;8.896;2023-05-10T00:25:02;100670.63;;;15.93;52.55
5126;BME280;63008;53.112;8.896;2023-05-10T00:27:03;100674.66;;;15.95;51.97
5126;BME280;63008;53.112;8.896;2023-05-10T00:29:04;100673.75;;;15.91;53.32
5126;BME280;63008;53.112;8.896;2023-05-10T00:31:05;100672.16;;;15.90;52.42
5126;BME280;63008;53.112;8.896;2023-05-10T00:33:06;100674.56;;;15.92;53.58
5126;BME280;63008;53.112;8.896;2023-05-10T00:35:08;100675.81;;;15.94;52.87
5126;BME280;63008;53.112;8.896;2023-05-10T00:37:09;100670.16;;;15.87;51.84
5126;BME280;63008;53.112;8.896;2023-05-10T00:39:09;100668.13;;;15.84;51.84
5126;BME280;63008;53.112;8.896;2023-05-10T00:41:10;100655.53;;;15.87;53.28
5126;BME280;63008;53.112;8.896;2023-05-10T00:43:11;100657.56;;;15.67;52.93
5126;BME280;63008;53.112;8.896;2023-05-10T00:45:12;100661.94;;;15.68;52.40
5126;BME280;63008;53.112;8.896;2023-05-10T00:47:13;100662.00;;;15.72;51.99
5126;BME280;63008;53.112;8.896;2023-05-10T00:49:15;100665.25;;;15.77;53.90
5126;BME280;63008;53.112;8.896;2023-05-10T00:51:16;100664.13;;;15.82;51.80
5126;BME280;63008;53.112;8.896;2023-05-10T00:53:18;100663.94;;;15.71;50.14
5126;BME280;63008;53.112;8.896;2023-05-10T00:55:19;100661.59;;;15.73;50.97
5126;BME280;63008;53.112;8.896;2023-05-10T00:57:21;100665.63;;;15.76;51.38
5126;BME280;63008;53.112;8.896;2023-05-10T00:59:22;100658.56;;;15.78;51.14
5126;BME280;63008;53.112;8.896;2023-05-10T01:01:24;100667.22;;;15.77;50.99
5126;BME280;63008;53.112;8.896;2023-05-10T01:03:25;100662.34;;;15.70;49.60
5126;BME280;63008;53.112;8.896;2023-05-10T01:05:26;100662.34;;;15.70;49.67
5126;BME280;63008;53.112;8.896;2023-05-10T01:07:28;100653.94;;;15.63;50.18
5126;BME280;63008;53.112;8.896;2023-05-10T01:09:29;100658.97;;;15.58;51.34
5126;BME280;63008;53.112;8.896;2023-05-10T01:11:30;100658.81;;;15.70;48.37
5126;BME280;63008;53.112;8.896;2023-05-10T01:13:33;100652.78;;;15.64;49.29
5126;BME280;63008;53.112;8.896;2023-05-10T01:15:36;100653.13;;;15.63;49.76
5126;BME280;63008;53.112;8.896;2023-05-10T01:17:38;100650.84;;;15.68;50.13
5126;BME280;63008;53.112;8.896;2023-05-10T01:19:40;100648.09;;;15.68;49.87
5126;BME280;63008;53.112;8.896;2023-05-10T01:29:58;100637.03;;;15.46;50.15
5126;BME280;63008;53.112;8.896;2023-05-10T01:34:24;100635.16;;;15.50;50.17
5126;BME280;63008;53.112;8.896;2023-05-10T01:36:35;100638.38;;;15.55;51.05
5126;BME280;63008;53.112;8.896;2023-05-10T01:38:55;100639.13;;;15.52;49.96
5126;BME280;63008;53.112;8.896;2023-05-10T01:41:17;100646.88;;;15.43;50.25
5126;BME280;63008;53.112;8.896;2023-05-10T01:43:26;100648.72;;;15.36;51.54
5126;BME280;63008;53.112;8.896;2023-05-10T01:45:34;100637.41;;;15.44;51.83
5126;BME280;63008;53.112;8.896;2023-05-10T01:47:38;100643.56;;;15.57;52.35
5126;BME280;63008;53.112;8.896;2023-05-10T01:49:44;100639.06;;;15.49;50.23
5126;BME280;63008;53.112;8.896;2023-05-10T01:51:51;100642.56;;;15.46;51.22
5126;BME280;63008;53.112;8.896;2023-05-10T01:53:59;100639.13;;;15.52;51.25
5126;BME280;63008;53.112;8.896;2023-05-10T01:56:01;100635.25;;;15.57;51.18
5126;BME280;63008;53.112;8.896;2023-05-10T01:58:09;100636.75;;;15.51;51.35
5126;BME280;63008;53.112;8.896;2023-05-10T02:00:12;100635.56;;;15.52;50.69
5126;BME280;63008;53.112;8.896;2023-05-10T02:02:14;100635.84;;;15.47;50.18
5126;BME280;63008;53.112;8.896;2023-05-10T02:04:17;100628.72;;;15.46;51.75
5126;BME280;63008;53.112;8.896;2023-05-10T02:06:20;100633.47;;;15.45;50.41
5126;BME280;63008;53.112;8.896;2023-05-10T02:08:23;100626.16;;;15.34;51.88
5126;BME280;63008;53.112;8.896;2023-05-10T02:10:25;100628.63;;;15.39;50.96
5126;BME280;63008;53.112;8.896;2023-05-10T02:12:26;100624.56;;;15.33;52.00
5126;BME280;63008;53.112;8.896;2023-05-10T02:14:34;100628.72;;;15.23;51.51
5126;BME280;63008;53.112;8.896;2023-05-10T02:16:36;100620.84;;;15.25;52.89
5126;BME280;63008;53.112;8.896;2023-05-10T02:18:39;100619.75;;;15.30;53.17
5126;BME280;63008;53.112;8.896;2023-05-10T02:20:43;100623.84;;;15.36;52.61
5126;BME280;63008;53.112;8.896;2023-05-10T02:22:47;100625.00;;;15.35;53.47
5126;BME280;63008;53.112;8.896;2023-05-10T02:24:50;100630.34;;;15.28;52.75
5126;BME280;63008;53.112;8.896;2023-05-10T02:26:53;100632.88;;;15.33;52.24
5126;BME280;63008;53.112;8.896;2023-05-10T02:28:56;100628.19;;;15.37;52.91
5126;BME280;63008;53.112;8.896;2023-05-10T02:30:59;100625.44;;;15.37;52.45
5126;BME280;63008;53.112;8.896;2023-05-10T02:33:04;100634.75;;;15.29;51.27
5126;BME280;63008;53.112;8.896;2023-05-10T02:35:06;100637.72;;;15.20;51.67
5126;BME280;63008;53.112;8.896;2023-05-10T02:37:08;100631.53;;;15.27;51.49
5126;BME280;63008;53.112;8.896;2023-05-10T02:39:10;100638.03;;;15.15;53.07
5126;BME280;63008;53.112;8.896;2023-05-10T02:41:14;100636.13;;;15.19;53.12
5126;BME280;63008;53.112;8.896;2023-05-10T02:43:16;100638.84;;;15.16;52.19
5126;BME280;63008;53.112;8.896;2023-05-10T02:45:20;100634.34;;;15.08;53.05
5126;BME280;63008;53.112;8.896;2023-05-10T02:47:23;100632.72;;;15.07;53.67
5126;BME280;63008;53.112;8.896;2023-05-10T02:49:24;100627.28;;;15.10;54.14
5126;BME280;63008;53.112;8.896;2023-05-10T02:51:28;100627.38;;;14.95;52.62
5126;BME280;63008;53.112;8.896;2023-05-10T02:53:35;100625.84;;;14.97;53.35
5126;BME280;63008;53.112;8.896;2023-05-10T02:55:38;100628.91;;;14.92;53.75
5126;BME280;63008;53.112;8.896;2023-05-10T02:57:44;100630.56;;;14.78;53.84
5126;BME280;63008;53.112;8.896;2023-05-10T02:59:47;100632.41;;;14.89;54.18
5126;BME280;63008;53.112;8.896;2023-05-10T03:01:48;100631.53;;;14.85;53.74
5126;BME280;63008;53.112;8.896;2023-05-10T03:03:49;100629.88;;;14.81;54.76
5126;BME280;63008;53.112;8.896;2023-05-10T03:05:50;100626.81;;;14.86;54.62
5126;BME280;63008;53.112;8.896;2023-05-10T03:07:52;100619.69;;;14.85;55.54
5126;BME280;63008;53.112;8.896;2023-05-10T03:09:53;100633.63;;;14.92;54.77
5126;BME280;63008;53.112;8.896;2023-05-10T03:19:17;100627.81;;;14.78;55.36
5126;BME280;63008;53.112;8.896;2023-05-10T03:21:22;100623.63;;;14.84;56.00
5126;BME280;63008;53.112;8.896;2023-05-10T03:23:34;100627.13;;;14.81;55.32
5126;BME280;63008;53.112;8.896;2023-05-10T03:25:37;100624.34;;;14.81;56.59
5126;BME280;63008;53.112;8.896;2023-05-10T03:27:42;100626.81;;;14.86;55.54
5126;BME280;63008;53.112;8.896;2023-05-10T03:29:44;100618.81;;;14.81;55.08
5126;BME280;63008;53.112;8.896;2023-05-10T03:31:47;100611.91;;;14.71;56.08
5126;BME280;63008;53.112;8.896;2023-05-10T03:33:49;100618.44;;;14.82;54.95
5126;BME280;63008;53.112;8.896;2023-05-10T03:35:50;100605.94;;;14.69;56.32
5126;BME280;63008;53.112;8.896;2023-05-10T03:37:51;100615.16;;;14.77;56.43
5126;BME280;63008;53.112;8.896;2023-05-10T03:39:52;100613.53;;;14.72;57.51
5126;BME280;63008;53.112;8.896;2023-05-10T03:41:53;100615.38;;;14.68;55.40
5126;BME280;63008;53.112;8.896;2023-05-10T03:43:53;100620.34;;;14.78;57.00
5126;BME280;63008;53.112;8.896;2023-05-10T03:45:54;100616.53;;;14.86;56.55
5126;BME280;63008;53.112;8.896;2023-05-10T03:47:57;100617.81;;;14.70;55.39
5126;BME280;63008;53.112;8.896;2023-05-10T03:49:57;100619.31;;;14.67;56.67
5126;BME280;63008;53.112;8.896;2023-05-10T03:51:58;100617.06;;;14.54;56.42
5126;BME280;63008;53.112;8.896;2023-05-10T03:53:59;100616.00;;;14.59;56.42
5126;BME280;63008;53.112;8.896;2023-05-10T03:56:03;100616.97;;;14.69;57.52
5126;BME280;63008;53.112;8.896;2023-05-10T03:58:04;100614.97;;;14.66;57.92
5126;BME280;63008;53.112;8.896;2023-05-10T04:00:08;100616.84;;;14.63;57.08
5126;BME280;63008;53.112;8.896;2023-05-10T04:02:09;100620.44;;;14.63;58.03
5126;BME280;63008;53.112;8.896;2023-05-10T04:04:10;100613.88;;;14.71;58.59
5126;BME280;63008;53.112;8.896;2023-05-10T04:06:12;100618.84;;;14.62;58.89
5126;BME280;63008;53.112;8.896;2023-05-10T04:08:12;100616.94;;;14.66;57.13
5126;BME280;63008;53.112;8.896;2023-05-10T04:10:14;100612.06;;;14.60;60.07
5126;BME280;63008;53.112;8.896;2023-05-10T04:12:14;100616.84;;;14.63;59.53
5126;BME280;63008;53.112;8.896;2023-05-10T04:14:15;100628.41;;;14.49;58.89
5126;BME280;63008;53.112;8.896;2023-05-10T04:16:17;100619.19;;;14.42;58.41
5126;BME280;63008;53.112;8.896;2023-05-10T04:18:18;100625.69;;;14.34;61.08
5126;BME280;63008;53.112;8.896;2023-05-10T04:20:19;100617.91;;;14.20;60.44
5126;BME280;63008;53.112;8.896;2023-05-10T04:22:20;100622.09;;;14.14;60.89
5126;BME280;63008;53.112;8.896;2023-05-10T04:24:21;100623.16;;;14.10;62.43
5126;BME280;63008;53.112;8.896;2023-05-10T04:26:22;100622.00;;;14.11;62.01
5126;BME280;63008;53.112;8.896;2023-05-10T04:28:23;100619.94;;;14.23;64.21
5126;BME280;63008;53.112;8.896;2023-05-10T04:30:26;100614.50;;;14.27;63.39
5126;BME280;63008;53.112;8.896;2023-05-10T04:32:29;100614.53;;;14.11;63.72
5126;BME280;63008;53.112;8.896;2023-05-10T04:34:30;100614.59;;;14.15;62.34
5126;BME280;63008;53.112;8.896;2023-05-10T04:36:31;100618.19;;;14.15;63.48
5126;BME280;63008;53.112;8.896;2023-05-10T04:38:37;100618.66;;;14.02;65.26
5126;BME280;63008;53.112;8.896;2023-05-10T04:40:38;100616.41;;;14.07;66.01
5126;BME280;63008;53.112;8.896;2023-05-10T04:42:43;100616.78;;;14.06;66.60
5126;BME280;63008;53.112;8.896;2023-05-10T04:44:44;100621.44;;;14.02;65.33
5126;BME280;63008;53.112;8.896;2023-05-10T04:46:45;100624.97;;;14.02;66.07
5126;BME280;63008;53.112;8.896;2023-05-10T04:48:46;100623.13;;;13.91;67.12
5126;BME280;63008;53.112;8.896;2023-05-10T04:50:47;100627.69;;;13.83;68.59
5126;BME280;63008;53.112;8.896;2023-05-10T04:52:48;100628.22;;;13.73;69.92
5126;BME280;63008;53.112;8.896;2023-05-10T04:54:49;100634.91;;;13.57;70.47
5126;BME280;63008;53.112;8.896;2023-05-10T04:56:50;100639.09;;;13.51;70.49
5126;BME280;63008;53.112;8.896;2023-05-10T04:58:51;100642.75;;;13.55;72.35
5126;BME280;63008;53.112;8.896;2023-05-10T05:00:52;100632.06;;;13.38;72.84
5126;BME280;63008;53.112;8.896;2023-05-10T05:02:53;100644.25;;;13.21;72.45
5126;BME280;63008;53.112;8.896;2023-05-10T05:04:55;100646.78;;;13.14;73.67
5126;BME280;63008;53.112;8.896;2023-05-10T05:06:56;100638.69;;;13.06;75.15
5126;BME280;63008;53.112;8.896;2023-05-10T05:08:57;100637.75;;;13.14;76.58
5126;BME280;63008;53.112;8.896;2023-05-10T05:10:58;100642.72;;;13.24;76.30
5126;BME280;63008;53.112;8.896;2023-05-10T05:13:00;100642.09;;;13.15;76.69
5126;BME280;63008;53.112;8.896;2023-05-10T05:15:01;100643.78;;;12.92;78.72
5126;BME280;63008;53.112;8.896;2023-05-10T05:17:03;100648.72;;;12.98;81.64
5126;BME280;63008;53.112;8.896;2023-05-10T05:19:04;100651.91;;;13.00;81.87
5126;BME280;63008;53.112;8.896;2023-05-10T05:21:15;100668.00;;;12.98;82.57
5126;BME280;63008;53.112;8.896;2023-05-10T05:23:16;100673.50;;;12.98;79.83
5126;BME280;63008;53.112;8.896;2023-05-10T05:25:18;100667.28;;;13.01;80.46
5126;BME280;63008;53.112;8.896;2023-05-10T05:27:19;100672.47;;;13.03;78.95
5126;BME280;63008;53.112;8.896;2023-05-10T05:29:24;100671.19;;;13.00;80.10
5126;BME280;63008;53.112;8.896;2023-05-10T05:31:25;100675.59;;;12.89;80.09
5126;BME280;63008;53.112;8.896;2023-05-10T05:33:26;100680.06;;;12.94;79.05
5126;BME280;63008;53.112;8.896;2023-05-10T05:35:27;100673.44;;;12.95;80.49
5126;BME280;63008;53.112;8.896;2023-05-10T05:37:28;100670.66;;;12.95;80.95
5126;BME280;63008;53.112;8.896;2023-05-10T05:39:29;100667.78;;;12.91;81.08
5126;BME280;63008;53.112;8.896;2023-05-10T05:41:30;100669.72;;;12.91;80.86
5126;BME280;63008;53.112;8.896;2023-05-10T05:43:31;100674.75;;;13.01;81.38
5126;BME280;63008;53.112;8.896;2023-05-10T05:45:32;100684.47;;;13.10;82.08
5126;BME280;63008;53.112;8.896;2023-05-10T05:47:33;100675.31;;;13.06;82.38
5126;BME280;63008;53.112;8.896;2023-05-10T05:49:34;100679.69;;;13.07;81.09
5126;BME280;63008;53.112;8.896;2023-05-10T05:51:35;100678.97;;;13.10;81.64
5126;BME280;63008;53.112;8.896;2023-05-10T05:53:36;100682.97;;;13.13;82.47
5126;BME280;63008;53.112;8.896;2023-05-10T05:55:37;100686.22;;;13.03;83.83
5126;BME280;63008;53.112;8.896;2023-05-10T05:57:38;100690.59;;;13.04;84.80
5126;BME280;63008;53.112;8.896;2023-05-10T05:59:39;100692.03;;;13.13;84.95
5126;BME280;63008;53.112;8.896;2023-05-10T06:01:44;100688.34;;;13.21;84.07
5126;BME280;63008;53.112;8.896;2023-05-10T06:03:45;100693.53;;;13.11;82.77
5126;BME280;63008;53.112;8.896;2023-05-10T06:05:46;100694.44;;;13.15;83.91
5126;BME280;63008;53.112;8.896;2023-05-10T06:07:47;100701.91;;;13.14;83.14
5126;BME280;63008;53.112;8.896;2023-05-10T06:09:48;100711.69;;;13.12;83.32
5126;BME280;63008;53.112;8.896;2023-05-10T06:11:49;100716.88;;;13.01;82.49
5126;BME280;63008;53.112;8.896;2023-05-10T06:13:50;100715.88;;;12.94;82.58
5126;BME280;63008;53.112;8.896;2023-05-10T06:15:51;100717.94;;;12.85;83.78
5126;BME280;63008;53.112;8.896;2023-05-10T06:17:52;100717.09;;;12.69;84.36
5126;BME280;63008;53.112;8.896;2023-05-10T06:19:53;100722.97;;;12.56;86.18
5126;BME280;63008;53.112;8.896;2023-05-10T06:21:54;100721.13;;;12.60;87.28
5126;BME280;63008;53.112;8.896;2023-05-10T06:23:55;100718.94;;;12.65;87.49
5126;BME280;63008;53.112;8.896;2023-05-10T06:25:55;100723.41;;;12.58;88.60
5126;BME280;63008;53.112;8.896;2023-05-10T06:27:56;100719.53;;;12.59;90.55
5126;BME280;63008;53.112;8.896;2023-05-10T06:29:58;100723.31;;;12.54;90.82
5126;BME280;63008;53.112;8.896;2023-05-10T06:31:59;100714.28;;;12.42;91.09
5126;BME280;63008;53.112;8.896;2023-05-10T06:34:00;100709.22;;;12.32;92.85
5126;BME280;63008;53.112;8.896;2023-05-10T06:36:01;100694.69;;;12.31;94.33
5126;BME280;63008;53.112;8.896;2023-05-10T06:38:02;100704.22;;;12.34;95.13
5126;BME280;63008;53.112;8.896;2023-05-10T06:40:04;100702.38;;;12.38;94.92
5126;BME280;63008;53.112;8.896;2023-05-10T06:42:05;100707.63;;;12.43;95.29
5126;BME280;63008;53.112;8.896;2023-05-10T06:44:06;100726.31;;;12.37;95.38
5126;BME280;63008;53.112;8.896;2023-05-10T06:46:07;100735.84;;;12.40;96.69
5126;BME280;63008;53.112;8.896;2023-05-10T06:48:08;100742.94;;;12.41;98.09
5126;BME280;63008;53.112;8.896;2023-05-10T06:50:10;100746.59;;;12.45;99.14
5126;BME280;63008;53.112;8.896;2023-05-10T06:52:12;100752.59;;;12.35;99.33
5126;BME280;63008;53.112;8.896;2023-05-10T06:54:13;100753.16;;;12.16;99.98
5126;BME280;63008;53.112;8.896;2023-05-10T06:56:16;100766.13;;;12.04;100.00
5126;BME280;63008;53.112;8.896;2023-05-10T06:58:17;100762.00;;;12.10;100.00
5126;BME280;63008;53.112;8.896;2023-05-10T07:00:19;100762.44;;;12.12;100.00
5126;BME280;63008;53.112;8.896;2023-05-10T07:02:20;100757.50;;;12.05;100.00
5126;BME280;63008;53.112;8.896;2023-05-10T07:04:21;100762.56;;;12.15;100.00
5126;BME280;63008;53.112;8.896;2023-05-10T07:06:22;100759.94;;;12.19;100.00
5126;BME280;63008;53.112;8.896;2023-05-10T07:08:23;100763.84;;;12.18;100.00
5126;BME280;63008;53.112;8.896;2023-05-10T07:10:24;100765.44;;;12.19;100.00
5126;BME280;63008;53.112;8.896;2023-05-10T07:12:24;100770.47;;;12.29;100.00
5126;BME280;63008;53.112;8.896;2023-05-10T07:14:25;100779.66;;;12.33;100.00
5126;BME280;63008;53.112;8.896;2023-05-10T07:16:26;100767.47;;;12.46;100.00
5126;BME280;63008;53.112;8.896;2023-05-10T07:18:27;100784.44;;;12.48;100.00
5126;BME280;63008;53.112;8.896;2023-05-10T07:20:28;100779.63;;;12.45;100.00
5126;BME280;63008;53.112;8.896;2023-05-10T07:22:29;100781.69;;;12.60;100.00
5126;BME280;63008;53.112;8.896;2023-05-10T07:24:32;100777.22;;;12.67;100.00
5126;BME280;63008;53.112;8.896;2023-05-10T07:26:33;100781.09;;;12.78;100.00
5126;BME280;63008;53.112;8.896;2023-05-10T07:28:34;100783.38;;;12.76;100.00
5126;BME280;63008;53.112;8.896;2023-05-10T07:30:38;100786.25;;;12.68;100.00
5126;BME280;63008;53.112;8.896;2023-05-10T07:32:38;100789.69;;;12.76;100.00
5126;BME280;63008;53.112;8.896;2023-05-10T07:34:42;100785.13;;;12.69;100.00
5126;BME280;63008;53.112;8.896;2023-05-10T07:36:43;100790.16;;;12.78;100.00
5126;BME280;63008;53.112;8.896;2023-05-10T07:38:44;100786.09;;;12.88;100.00
5126;BME280;63008;53.112;8.896;2023-05-10T07:40:45;100791.38;;;13.05;100.00
5126;BME280;63008;53.112;8.896;2023-05-10T07:42:46;100785.53;;;13.06;100.00
5126;BME280;63008;53.112;8.896;2023-05-10T07:44:47;100786.53;;;13.14;100.00
5126;BME280;63008;53.112;8.896;2023-05-10T07:46:48;100784.78;;;13.21;100.00
5126;BME280;63008;53.112;8.896;2023-05-10T07:48:49;100783.56;;;13.34;100.00
5126;BME280;63008;53.112;8.896;2023-05-10T07:50:50;100786.16;;;13.43;100.00
5126;BME280;63008;53.112;8.896;2023-05-10T07:52:51;100788.97;;;13.58;100.00
5126;BME280;63008;53.112;8.896;2023-05-10T07:54:52;100779.28;;;13.64;100.00
5126;BME280;63008;53.112;8.896;2023-05-10T07:56:53;100786.97;;;13.71;100.00
5126;BME280;63008;53.112;8.896;2023-05-10T07:58:54;100778.84;;;13.78;100.00
5126;BME280;63008;53.112;8.896;2023-05-10T08:00:55;100793.75;;;13.89;100.00
5126;BME280;63008;53.112;8.896;2023-05-10T08:02:57;100791.16;;;13.96;100.00
5126;BME280;63008;53.112;8.896;2023-05-10T08:04:58;100791.34;;;14.03;100.00
5126;BME280;63008;53.112;8.896;2023-05-10T08:06:59;100799.63;;;14.03;100.00
5126;BME280;63008;53.112;8.896;2023-05-10T08:09:00;100804.06;;;14.07;100.00
5126;BME280;63008;53.112;8.896;2023-05-10T08:11:01;100800.34;;;14.15;100.00
5126;BME280;63008;53.112;8.896;2023-05-10T08:13:02;100808.38;;;14.20;100.00
5126;BME280;63008;53.112;8.896;2023-05-10T08:15:03;100801.97;;;14.32;100.00
5126;BME280;63008;53.112;8.896;2023-05-10T08:17:04;100801.00;;;14.40;100.00
5126;BME280;63008;53.112;8.896;2023-05-10T08:19:05;100806.75;;;14.50;100.00
5126;BME280;63008;53.112;8.896;2023-05-10T08:21:07;100812.81;;;14.56;100.00
5126;BME280;63008;53.112;8.896;2023-05-10T08:23:08;100805.50;;;14.63;100.00
5126;BME280;63008;53.112;8.896;2023-05-10T08:25:08;100808.84;;;14.72;100.00
5126;BME280;63008;53.112;8.896;2023-05-10T08:27:10;100813.84;;;14.82;100.00
5126;BME280;63008;53.112;8.896;2023-05-10T08:29:11;100814.47;;;14.75;100.00
5126;BME280;63008;53.112;8.896;2023-05-10T08:31:11;100816.59;;;14.82;100.00
5126;BME280;63008;53.112;8.896;2023-05-10T08:33:12;100812.72;;;14.86;100.00
5126;BME280;63008;53.112;8.896;2023-05-10T08:35:15;100825.66;;;14.98;100.00
5126;BME280;63008;53.112;8.896;2023-05-10T08:37:16;100823.59;;;14.95;100.00
5126;BME280;63008;53.112;8.896;2023-05-10T08:39:17;100818.53;;;14.97;100.00
5126;BME280;63008;53.112;8.896;2023-05-10T08:41:22;100814.94;;;14.96;100.00
5126;BME280;63008;53.112;8.896;2023-05-10T08:43:28;100815.75;;;14.97;100.00
5126;BME280;63008;53.112;8.896;2023-05-10T08:45:32;100825.44;;;15.06;100.00
5126;BME280;63008;53.112;8.896;2023-05-10T08:47:36;100820.56;;;15.00;98.59
5126;BME280;63008;53.112;8.896;2023-05-10T08:49:38;100820.19;;;15.01;97.78
5126;BME280;63008;53.112;8.896;2023-05-10T08:51:40;100815.63;;;15.09;96.29
5126;BME280;63008;53.112;8.896;2023-05-10T08:53:44;100828.00;;;15.15;99.07
5126;BME280;63008;53.112;8.896;2023-05-10T08:55:47;100823.06;;;15.24;96.67
5126;BME280;63008;53.112;8.896;2023-05-10T08:57:49;100827.63;;;15.32;97.77
5126;BME280;63008;53.112;8.896;2023-05-10T08:59:50;100836.34;;;15.34;98.14
5126;BME280;63008;53.112;8.896;2023-05-10T09:01:53;100833.19;;;15.35;97.79
5126;BME280;63008;53.112;8.896;2023-05-10T09:03:56;100834.66;;;15.29;97.95
5126;BME280;63008;53.112;8.896;2023-05-10T09:05:57;100840.09;;;15.26;96.70
5126;BME280;63008;53.112;8.896;2023-05-10T09:08:01;100846.41;;;15.07;97.13
5126;BME280;63008;53.112;8.896;2023-05-10T09:10:02;100849.38;;;14.99;96.03
5126;BME280;63008;53.112;8.896;2023-05-10T09:12:05;100844.34;;;15.04;95.82
5126;BME280;63008;53.112;8.896;2023-05-10T09:14:07;100852.94;;;15.18;94.78
5126;BME280;63008;53.112;8.896;2023-05-10T09:16:10;100853.56;;;15.27;94.50
5126;BME280;63008;53.112;8.896;2023-05-10T09:18:11;100858.03;;;15.32;93.12
5126;BME280;63008;53.112;8.896;2023-05-10T09:20:12;100851.47;;;15.40;93.23
5126;BME280;63008;53.112;8.896;2023-05-10T09:22:14;100860.59;;;15.59;92.47
5126;BME280;63008;53.112;8.896;2023-05-10T09:24:15;100865.88;;;15.87;91.08
5126;BME280;63008;53.112;8.896;2023-05-10T09:26:16;100866.00;;;15.94;88.72
5126;BME280;63008;53.112;8.896;2023-05-10T09:28:17;100873.28;;;16.02;87.32
5126;BME280;63008;53.112;8.896;2023-05-10T09:30:26;100878.47;;;16.03;87.86
5126;BME280;63008;53.112;8.896;2023-05-10T09:32:41;100875.34;;;16.05;85.61
5126;BME280;63008;53.112;8.896;2023-05-10T09:34:42;100868.63;;;16.06;87.34
5126;BME280;63008;53.112;8.896;2023-05-10T09:36:59;100880.09;;;16.27;87.63
5126;BME280;63008;53.112;8.896;2023-05-10T09:39:04;100877.00;;;16.32;86.61
5126;BME280;63008;53.112;8.896;2023-05-10T09:41:15;100876.47;;;16.45;88.79
5126;BME280;63008;53.112;8.896;2023-05-10T09:43:17;100880.47;;;16.48;88.68
5126;BME280;63008;53.112;8.896;2023-05-10T09:45:18;100870.56;;;16.47;86.75
5126;BME280;63008;53.112;8.896;2023-05-10T09:47:19;100881.59;;;16.43;87.52
5126;BME280;63008;53.112;8.896;2023-05-10T09:49:21;100880.00;;;16.23;86.73
5126;BME280;63008;53.112;8.896;2023-05-10T09:51:24;100883.53;;;16.20;87.20
5126;BME280;63008;53.112;8.896;2023-05-10T09:53:25;100886.84;;;16.07;84.72
5126;BME280;63008;53.112;8.896;2023-05-10T09:57:39;100892.44;;;15.91;85.07
5126;BME280;63008;53.112;8.896;2023-05-10T09:59:42;100884.22;;;15.95;85.64
5126;BME280;63008;53.112;8.896;2023-05-10T10:01:49;100889.63;;;15.88;88.21
5126;BME280;63008;53.112;8.896;2023-05-10T10:03:50;100887.28;;;15.90;87.94
5126;BME280;63008;53.112;8.896;2023-05-10T10:05:51;100896.09;;;16.14;87.51
5126;BME280;63008;53.112;8.896;2023-05-10T10:07:54;100889.19;;;16.27;86.27
5126;BME280;63008;53.112;8.896;2023-05-10T10:09:56;100890.78;;;16.47;84.57
5126;BME280;63008;53.112;8.896;2023-05-10T10:11:57;100898.44;;;16.79;81.85
5126;BME280;63008;53.112;8.896;2023-05-10T10:13:58;100892.75;;;17.21;83.40
5126;BME280;63008;53.112;8.896;2023-05-10T10:15:59;100896.75;;;17.49;81.19
5126;BME280;63008;53.112;8.896;2023-05-10T10:18:00;100897.44;;;17.43;78.80
5126;BME280;63008;53.112;8.896;2023-05-10T10:20:02;100893.59;;;17.25;78.74
5126;BME280;63008;53.112;8.896;2023-05-10T10:22:03;100893.66;;;17.02;80.82
5126;BME280;63008;53.112;8.896;2023-05-10T10:24:05;100895.69;;;16.79;82.41
5126;BME280;63008;53.112;8.896;2023-05-10T10:26:06;100901.84;;;16.69;83.06
5126;BME280;63008;53.112;8.896;2023-05-10T10:28:25;100900.06;;;16.58;82.72
5126;BME280;63008;53.112;8.896;2023-05-10T10:30:46;100904.81;;;16.35;83.14
5126;BME280;63008;53.112;8.896;2023-05-10T10:35:14;100915.63;;;15.64;87.00
5126;BME280;63008;53.112;8.896;2023-05-10T10:37:17;100909.84;;;15.35;88.00
5126;BME280;63008;53.112;8.896;2023-05-10T10:39:19;100914.56;;;15.34;89.28
5126;BME280;63008;53.112;8.896;2023-05-10T10:41:34;100906.06;;;15.43;89.80
5126;BME280;63008;53.112;8.896;2023-05-10T10:43:36;100914.88;;;15.48;88.99
5126;BME280;63008;53.112;8.896;2023-05-10T10:45:39;100908.09;;;15.46;90.10
5126;BME280;63008;53.112;8.896;2023-05-10T10:47:40;100904.56;;;15.45;89.69
5126;BME280;63008;53.112;8.896;2023-05-10T10:54:27;100916.38;;;16.41;86.53
5126;BME280;63008;53.112;8.896;2023-05-10T10:56:29;100911.25;;;16.87;85.13
5126;BME280;63008;53.112;8.896;2023-05-10T10:58:30;100911.03;;;17.25;84.21
5126;BME280;63008;53.112;8.896;2023-05-10T11:00:35;100913.47;;;17.56;79.98
5126;BME280;63008;53.112;8.896;2023-05-10T11:02:43;100911.09;;;17.84;79.53
5126;BME280;63008;53.112;8.896;2023-05-10T11:04:46;100918.22;;;17.85;79.98
5126;BME280;63008;53.112;8.896;2023-05-10T11:06:47;100911.09;;;17.84;80.42
5126;BME280;63008;53.112;8.896;2023-05-10T11:08:48;100915.69;;;17.73;76.89
5126;BME280;63008;53.112;8.896;2023-05-10T11:13:05;100915.81;;;18.17;75.79
5126;BME280;63008;53.112;8.896;2023-05-10T11:15:09;100913.19;;;18.27;75.53